Time;durP1;ratioP1;P1;durP2;ratioP2;P2;SDS_P1;SDS_P2;PMS_P1;PMS_P2;Temp;Humidity;BMP_temperature;BMP_pressure;BME280_temperature;BME280_humidity;BME280_pressure;Samples;Min_cycle;Max_cycle;Signal;HPM_P1;HPM_P2
2022/01/03 00:00:12;;;;;;;9.07;5.78;;;11.90;89.10;;;;;;5090380;28;20099;-56
2022/01/03 00:02:39;;;;;;;8.15;2.65;;;11.90;89.60;;;;;;5072085;28;20176;-55
2022/01/03 00:05:06;;;;;;;7.32;3.13;;;11.70;90.70;;;;;;5090597;28;20077;-57
2022/01/03 00:07:37;;;;;;;3.95;2.33;;;11.60;90.40;;;;;;5090052;28;20016;-55
2022/01/03 00:10:04;;;;;;;4.20;2.90;;;11.70;90.10;;;;;;5089832;28;20097;-57
2022/01/03 00:12:30;;;;;;;4.50;3.17;;;11.70;90.30;;;;;;5071850;28;20028;-57
2022/01/03 00:14:56;;;;;;;2.55;2.10;;;11.70;90.30;;;;;;5089214;28;20467;-56
2022/01/03 00:17:22;;;;;;;9.27;4.20;;;11.50;90.60;;;;;;5071464;28;20100;-55
2022/01/03 00:19:48;;;;;;;5.68;2.83;;;11.40;91.00;;;;;;5090159;28;20475;-56
2022/01/03 00:22:16;;;;;;;8.68;4.90;;;11.20;91.80;;;;;;5089265;28;20020;-57
2022/01/03 00:24:48;;;;;;;3.72;3.20;;;11.10;91.90;;;;;;5089858;28;20036;-56
2022/01/03 00:27:15;;;;;;;3.75;2.42;;;10.90;92.50;;;;;;5071330;28;20031;-56
2022/01/03 00:29:47;;;;;;;9.18;5.10;;;10.80;92.70;;;;;;5090037;28;20026;-55
2022/01/03 00:32:13;;;;;;;3.95;2.72;;;10.60;92.80;;;;;;5089688;28;20425;-56
2022/01/03 00:34:40;;;;;;;7.07;4.57;;;10.50;93.10;;;;;;5089996;28;20099;-57
2022/01/03 00:37:07;;;;;;;5.38;2.85;;;10.40;93.40;;;;;;5091093;28;20020;-56
2022/01/03 00:39:33;;;;;;;4.10;3.03;;;10.20;93.80;;;;;;5093824;28;20024;-57
2022/01/03 00:41:59;;;;;;;5.93;3.42;;;10.20;94.60;;;;;;5093121;28;20076;-56
2022/01/03 00:44:25;;;;;;;13.77;2.88;;;10.00;94.90;;;;;;5093262;28;20020;-56
2022/01/03 00:46:55;;;;;;;12.70;4.72;;;9.90;95.30;;;;;;5093172;28;20028;-56
2022/01/03 00:49:21;;;;;;;3.65;2.88;;;9.80;94.90;;;;;;5093585;28;20054;-55
2022/01/03 00:51:46;;;;;;;3.70;2.72;;;9.90;95.20;;;;;;5093989;28;20024;-57
2022/01/03 00:54:12;;;;;;;5.40;2.80;;;10.10;94.70;;;;;;5092826;28;20027;-55
2022/01/03 00:56:43;;;;;;;11.45;6.07;;;10.30;94.50;;;;;;5093148;28;20541;-55
2022/01/03 00:59:15;;;;;;;9.98;4.05;;;10.40;94.10;;;;;;5092539;28;20388;-56
2022/01/03 01:01:51;;;;;;;19.52;8.48;;;10.50;94.30;;;;;;5093015;28;20020;-57
2022/01/03 01:04:20;;;;;;;3.25;2.60;;;10.60;93.70;;;;;;5093036;28;20032;-57
2022/01/03 01:06:50;;;;;;;5.70;3.83;;;10.60;93.80;;;;;;5093420;28;20377;-57
2022/01/03 01:09:17;;;;;;;3.08;2.58;;;10.70;93.60;;;;;;5093128;28;20055;-55
2022/01/03 01:11:44;;;;;;;3.60;2.33;;;10.80;94.10;;;;;;5092364;28;20093;-56
2022/01/03 01:14:11;;;;;;;6.38;3.40;;;10.80;94.10;;;;;;5092382;28;20031;-56
2022/01/03 01:16:36;;;;;;;5.72;3.40;;;10.70;94.10;;;;;;5092269;28;20016;-55
2022/01/03 01:19:04;;;;;;;7.63;5.07;;;10.80;93.50;;;;;;5093031;28;20102;-56
2022/01/03 01:21:30;;;;;;;2.55;2.25;;;11.10;92.80;;;;;;5091882;28;20028;-57
2022/01/03 01:23:57;;;;;;;7.00;3.28;;;11.20;92.80;;;;;;5092458;28;20059;-54
2022/01/03 01:29:09;;;;;;;3.85;2.42;;;11.30;92.90;;;;;;5092579;28;20066;-55
2022/01/03 01:31:39;;;;;;;2.90;2.42;;;11.30;93.30;;;;;;5092369;28;20077;-55
2022/01/03 01:34:06;;;;;;;7.32;2.45;;;11.30;93.10;;;;;;5092056;28;20103;-57
2022/01/03 01:36:32;;;;;;;5.28;3.25;;;11.30;93.30;;;;;;5092526;28;20435;-55
2022/01/03 01:39:10;;;;;;;5.00;3.42;;;11.30;93.30;;;;;;5092479;28;20008;-56
2022/01/03 01:41:42;;;;;;;4.97;3.60;;;11.40;93.30;;;;;;5092157;28;20483;-57
2022/01/03 01:44:11;;;;;;;2.58;2.17;;;11.40;93.00;;;;;;5072321;28;20115;-55
2022/01/03 01:46:53;;;;;;;4.85;3.00;;;11.50;93.00;;;;;;5081557;28;20060;-56
2022/01/03 01:49:23;;;;;;;16.88;3.67;;;11.50;93.30;;;;;;5090790;28;20660;-56
2022/01/03 01:51:57;;;;;;;3.97;2.50;;;11.50;93.40;;;;;;5091770;28;20114;-57
2022/01/03 01:54:32;;;;;;;4.80;3.38;;;11.60;93.40;;;;;;5091916;28;20411;-57
2022/01/03 01:57:07;;;;;;;3.92;2.58;;;11.50;93.90;;;;;;5074060;28;20046;-56
2022/01/03 01:59:54;;;;;;;5.43;2.65;;;11.30;94.20;;;;;;5091470;28;20028;-55
2022/01/03 02:02:30;;;;;;;5.22;3.25;;;11.40;94.10;;;;;;5091762;28;20020;-58
2022/01/03 02:05:26;;;;;;;6.80;2.20;;;11.30;94.30;;;;;;5092194;28;20477;-57
2022/01/03 02:08:13;;;;;;;3.42;2.70;;;11.20;94.70;;;;;;5091427;28;20024;-56
2022/01/03 02:11:03;;;;;;;7.45;2.60;;;11.30;94.60;;;;;;5091249;28;20465;-57
2022/01/03 02:13:30;;;;;;;4.35;3.03;;;11.20;94.90;;;;;;5091358;28;20521;-57
2022/01/03 02:16:03;;;;;;;4.80;2.85;;;11.20;95.00;;;;;;5091722;28;20016;-55
2022/01/03 02:18:30;;;;;;;4.20;3.30;;;11.10;95.40;;;;;;5091676;28;20020;-55
2022/01/03 02:20:56;;;;;;;6.47;2.28;;;11.00;95.60;;;;;;5091417;28;20032;-56
2022/01/03 02:23:22;;;;;;;8.88;2.63;;;10.90;96.20;;;;;;5091396;28;20020;-55
2022/01/03 02:25:48;;;;;;;5.85;3.13;;;10.90;96.00;;;;;;5091046;28;20024;-56
2022/01/03 02:28:16;;;;;;;6.20;3.10;;;11.00;95.90;;;;;;5073044;28;20024;-56
2022/01/03 02:30:43;;;;;;;2.63;2.40;;;11.00;95.60;;;;;;5091470;28;20043;-54
2022/01/03 02:33:08;;;;;;;6.38;3.33;;;11.20;95.70;;;;;;5091674;28;20073;-57
2022/01/03 02:35:38;;;;;;;7.07;2.90;;;11.30;95.50;;;;;;5090345;28;20016;-55
2022/01/03 02:38:04;;;;;;;5.85;3.17;;;11.40;95.00;;;;;;5091118;28;20046;-56
2022/01/03 02:40:31;;;;;;;9.32;3.33;;;11.40;95.10;;;;;;5090321;28;20020;-55
2022/01/03 02:42:57;;;;;;;5.18;3.22;;;11.30;95.30;;;;;;5090733;28;20411;-56
2022/01/03 02:45:24;;;;;;;4.03;2.45;;;11.30;95.40;;;;;;5091034;28;20032;-56
2022/01/03 02:47:55;;;;;;;3.67;2.85;;;11.30;95.30;;;;;;5090800;28;20032;-57
2022/01/03 02:50:22;;;;;;;5.93;2.88;;;11.30;95.70;;;;;;5089878;28;20048;-57
2022/01/03 02:52:48;;;;;;;3.17;2.88;;;11.20;95.70;;;;;;5090289;28;20036;-56
2022/01/03 02:55:16;;;;;;;5.63;3.35;;;11.40;95.20;;;;;;5090871;28;20052;-55
2022/01/03 02:57:44;;;;;;;5.05;3.10;;;11.30;95.60;;;;;;5090751;28;20116;-56
2022/01/03 03:00:17;;;;;;;3.13;2.58;;;11.20;95.40;;;;;;5090367;28;20027;-57
2022/01/03 03:02:43;;;;;;;3.10;2.78;;;11.20;95.60;;;;;;5090378;28;20640;-56
2022/01/03 03:05:10;;;;;;;6.85;2.78;;;11.10;96.20;;;;;;5091299;28;20038;-57
2022/01/03 03:07:37;;;;;;;3.20;2.63;;;11.00;95.80;;;;;;5090614;28;20020;-57
2022/01/03 03:10:09;;;;;;;2.20;1.90;;;11.10;96.30;;;;;;5090711;28;20052;-56
2022/01/03 03:12:35;;;;;;;3.78;2.20;;;11.00;96.60;;;;;;5090209;28;20027;-57
2022/01/03 03:15:02;;;;;;;3.88;2.80;;;11.00;96.50;;;;;;5090033;28;20063;-56
2022/01/03 03:17:28;;;;;;;4.75;2.40;;;10.90;96.60;;;;;;5090248;28;20024;-57
2022/01/03 03:20:10;;;;;;;6.32;2.25;;;10.90;96.50;;;;;;5090212;28;20031;-56
2022/01/03 03:22:37;;;;;;;5.03;2.22;;;11.00;97.00;;;;;;5090186;28;20379;-56
2022/01/03 03:25:16;;;;;;;2.63;2.20;;;11.00;97.20;;;;;;5071720;28;20031;-57
2022/01/03 03:27:46;;;;;;;5.25;2.13;;;11.00;96.70;;;;;;5089098;28;20035;-57
2022/01/03 03:30:14;;;;;;;6.30;2.42;;;11.00;97.00;;;;;;5090596;28;20103;-57
2022/01/03 03:32:41;;;;;;;1.90;1.80;;;11.00;97.20;;;;;;5090047;28;20074;-56
2022/01/03 03:35:07;;;;;;;5.82;2.42;;;11.10;96.90;;;;;;5090248;28;20054;-57
2022/01/03 03:37:33;;;;;;;4.22;2.40;;;11.10;97.00;;;;;;5089479;28;20048;-56
2022/01/03 03:39:59;;;;;;;2.92;1.92;;;11.20;96.80;;;;;;5090505;28;20034;-57
2022/01/03 03:42:24;;;;;;;8.13;2.35;;;11.30;97.00;;;;;;5070832;28;20034;-55
2022/01/03 03:44:50;;;;;;;4.13;1.90;;;11.30;97.10;;;;;;5089757;28;20063;-56
2022/01/03 03:47:16;;;;;;;3.53;2.10;;;11.40;96.70;;;;;;5089438;28;20031;-56
2022/01/03 03:49:41;;;;;;;3.03;2.20;;;11.30;96.90;;;;;;5090492;28;20020;-55
2022/01/03 03:52:07;;;;;;;4.60;2.20;;;11.40;96.90;;;;;;5071965;28;20028;-57
2022/01/03 03:54:34;;;;;;;5.47;2.03;;;11.30;97.00;;;;;;5089399;28;20067;-56
2022/01/03 03:57:01;;;;;;;4.13;1.88;;;11.30;97.00;;;;;;5090187;28;20399;-57
2022/01/03 03:59:27;;;;;;;4.03;2.40;;;11.40;97.00;;;;;;5090198;28;20012;-56
2022/01/03 04:01:54;;;;;;;4.70;2.72;;;11.40;96.70;;;;;;5071827;28;20483;-56
2022/01/03 04:04:20;;;;;;;3.30;2.72;;;11.50;96.40;;;;;;5089971;28;20032;-57
2022/01/03 04:06:46;;;;;;;4.60;2.35;;;11.50;96.30;;;;;;5090032;28;20073;-56
2022/01/03 04:09:13;;;;;;;4.22;2.17;;;11.50;96.10;;;;;;5090155;28;20391;-55
2022/01/03 04:11:39;;;;;;;4.38;2.30;;;11.50;96.30;;;;;;5090097;28;20031;-56
2022/01/03 04:14:04;;;;;;;2.97;1.92;;;11.50;96.00;;;;;;5093833;28;20577;-56
2022/01/03 04:16:31;;;;;;;2.63;1.80;;;11.50;96.00;;;;;;5094050;28;20060;-55
2022/01/03 04:18:56;;;;;;;4.75;3.05;;;11.50;96.20;;;;;;5094202;28;20093;-56
2022/01/03 04:21:22;;;;;;;4.03;2.15;;;11.50;96.00;;;;;;5093950;28;20424;-57
2022/01/03 04:23:48;;;;;;;5.22;2.50;;;11.50;96.30;;;;;;5093907;28;20111;-56
2022/01/03 04:26:13;;;;;;;4.60;2.20;;;11.50;96.50;;;;;;5093924;28;20473;-56
2022/01/03 04:28:39;;;;;;;3.63;2.10;;;11.50;96.10;;;;;;5093867;28;20383;-56
2022/01/03 04:31:05;;;;;;;3.33;2.40;;;11.40;96.20;;;;;;5093903;28;20032;-57
2022/01/03 04:33:32;;;;;;;3.65;1.80;;;11.40;96.40;;;;;;5093832;28;20429;-57
2022/01/03 04:35:58;;;;;;;2.58;1.73;;;11.40;96.70;;;;;;5093701;28;20106;-57
2022/01/03 04:38:23;;;;;;;4.13;1.80;;;11.30;96.30;;;;;;5093544;28;20547;-54
2022/01/03 04:40:49;;;;;;;4.82;2.25;;;11.40;96.00;;;;;;5093523;28;20061;-56
2022/01/03 04:43:15;;;;;;;3.78;1.75;;;11.50;96.30;;;;;;5093483;28;20020;-56
2022/01/03 04:45:40;;;;;;;7.32;2.10;;;11.30;96.50;;;;;;5093288;28;20024;-56
2022/01/03 04:48:06;;;;;;;8.55;2.55;;;11.40;96.30;;;;;;5093639;28;20043;-57
2022/01/03 04:50:32;;;;;;;3.25;1.77;;;11.30;96.20;;;;;;5093427;28;20024;-55
2022/01/03 04:52:57;;;;;;;2.03;1.60;;;11.40;95.80;;;;;;5093482;28;20028;-55
2022/01/03 04:55:23;;;;;;;4.07;2.05;;;11.40;96.30;;;;;;5092983;28;20040;-56
2022/01/03 04:57:50;;;;;;;7.55;1.95;;;11.40;96.90;;;;;;5093498;28;20031;-55
2022/01/03 05:00:17;;;;;;;10.20;2.55;;;11.20;97.10;;;;;;5093406;28;20031;-57
2022/01/03 05:02:42;;;;;;;5.00;2.22;;;11.20;96.90;;;;;;5092823;28;20024;-56
2022/01/03 05:05:08;;;;;;;3.25;1.88;;;11.20;97.30;;;;;;5093254;28;20494;-57
2022/01/03 05:07:35;;;;;;;5.25;2.03;;;11.20;97.30;;;;;;5093144;28;20028;-54
2022/01/03 05:10:00;;;;;;;5.22;2.30;;;11.20;97.00;;;;;;5093254;28;20024;-57
2022/01/03 05:12:26;;;;;;;10.27;3.63;;;11.20;97.20;;;;;;5092340;28;20036;-56
2022/01/03 05:14:52;;;;;;;9.60;3.38;;;11.20;97.10;;;;;;5093423;28;20031;-55
2022/01/03 05:17:17;;;;;;;15.65;6.07;;;11.20;97.50;;;;;;5092508;28;20023;-56
2022/01/03 05:19:43;;;;;;;20.35;8.85;;;11.20;97.20;;;;;;5092446;28;20028;-56
2022/01/03 05:22:08;;;;;;;25.90;10.57;;;11.30;97.00;;;;;;5093039;28;20363;-56
2022/01/03 05:24:35;;;;;;;6.30;2.47;;;11.30;97.20;;;;;;5092421;28;20522;-56
2022/01/03 05:27:05;;;;;;;5.00;2.17;;;11.30;97.90;;;;;;5092875;28;20023;-57
2022/01/03 05:29:34;;;;;;;12.80;5.95;;;11.20;97.60;;;;;;5092344;28;20028;-57
2022/01/03 05:32:01;;;;;;;8.80;3.95;;;11.20;97.60;;;;;;5080889;28;20028;-57
2022/01/03 05:34:26;;;;;;;7.47;3.35;;;11.30;97.30;;;;;;5092266;28;20030;-56
2022/01/03 05:36:52;;;;;;;5.25;1.98;;;11.30;97.50;;;;;;5092683;28;20375;-57
2022/01/03 05:39:18;;;;;;;4.07;1.90;;;11.30;97.90;;;;;;5092657;28;20045;-57
2022/01/03 05:41:44;;;;;;;3.35;2.90;;;11.30;98.20;;;;;;5092282;28;20028;-57
2022/01/03 05:44:09;;;;;;;5.75;2.42;;;11.20;98.00;;;;;;5092568;28;20479;-57
2022/01/03 05:46:35;;;;;;;10.27;2.70;;;11.20;98.00;;;;;;5074063;28;20027;-56
2022/01/03 05:49:01;;;;;;;7.80;2.92;;;11.30;98.40;;;;;;5074576;28;20485;-55
2022/01/03 05:51:27;;;;;;;4.65;2.33;;;11.20;98.20;;;;;;5091986;28;20056;-55
2022/01/03 05:53:53;;;;;;;5.38;2.47;;;11.20;98.60;;;;;;5092438;28;20032;-57
2022/01/03 05:56:19;;;;;;;4.10;2.33;;;11.30;98.20;;;;;;5091090;28;20039;-57
2022/01/03 05:58:45;;;;;;;7.32;3.95;;;11.20;98.30;;;;;;5091433;28;20028;-56
2022/01/03 06:01:11;;;;;;;7.85;2.13;;;11.20;98.60;;;;;;5092309;28;20289;-56
2022/01/03 06:03:39;;;;;;;6.07;2.65;;;11.20;98.70;;;;;;5091482;28;20277;-57
2022/01/03 06:08:34;;;;;;;4.50;2.15;;;11.20;98.80;;;;;;5091954;28;20616;-55
2022/01/03 06:11:00;;;;;;;3.50;2.15;;;11.20;98.70;;;;;;5092206;28;20024;-58
2022/01/03 06:13:26;;;;;;;5.28;3.35;;;11.20;98.90;;;;;;5090977;28;20127;-58
2022/01/03 06:15:52;;;;;;;8.82;3.28;;;11.20;99.40;;;;;;5091700;28;20028;-59
2022/01/03 06:18:18;;;;;;;11.23;2.17;;;11.10;99.30;;;;;;5091443;28;20028;-56
2022/01/03 06:20:45;;;;;;;10.98;3.22;;;11.10;99.50;;;;;;5091660;28;20028;-58
2022/01/03 06:23:13;;;;;;;4.45;2.00;;;11.10;99.00;;;;;;5091641;28;20449;-58
2022/01/03 06:25:40;;;;;;;4.65;2.08;;;11.10;99.40;;;;;;5091239;28;20111;-57
2022/01/03 06:28:07;;;;;;;8.18;1.98;;;11.10;99.40;;;;;;5091401;28;20097;-58
2022/01/03 06:30:38;;;;;;;6.97;2.00;;;11.10;99.40;;;;;;5091363;28;20024;-58
2022/01/03 06:33:06;;;;;;;7.68;2.00;;;11.10;99.40;;;;;;5073422;28;20339;-58
2022/01/03 06:35:32;;;;;;;14.23;2.50;;;11.10;99.30;;;;;;5090983;28;20028;-58
2022/01/03 06:37:59;;;;;;;10.93;2.42;;;11.10;99.60;;;;;;5091308;28;20332;-58
2022/01/03 06:40:25;;;;;;;4.03;1.90;;;11.10;99.80;;;;;;5091271;28;20035;-58
2022/01/03 06:42:51;;;;;;;7.13;2.70;;;11.00;99.70;;;;;;5066471;28;20454;-58
2022/01/03 06:45:17;;;;;;;4.40;2.60;;;11.00;99.50;;;;;;5090994;28;20039;-58
2022/01/03 06:47:43;;;;;;;5.93;2.45;;;11.00;99.80;;;;;;5090932;28;20028;-58
2022/01/03 06:50:09;;;;;;;6.47;2.30;;;11.00;99.90;;;;;;5091388;28;20077;-58
2022/01/03 06:52:35;;;;;;;11.82;2.60;;;11.00;99.90;;;;;;5090459;28;20046;-55
2022/01/03 06:55:01;;;;;;;49.78;19.35;;;11.00;99.90;;;;;;5091082;28;20048;-56
2022/01/03 06:57:27;;;;;;;34.55;11.93;;;10.90;99.90;;;;;;5091182;28;20345;-57
2022/01/03 06:59:53;;;;;;;7.07;3.92;;;10.80;99.90;;;;;;5090791;28;20145;-56
2022/01/03 07:02:18;;;;;;;6.97;3.65;;;10.90;99.90;;;;;;5072121;28;20023;-57
2022/01/03 07:04:44;;;;;;;13.57;5.97;;;10.90;99.90;;;;;;5072318;28;20804;-57
2022/01/03 07:07:09;;;;;;;10.05;3.72;;;10.80;99.90;;;;;;5090502;28;20024;-57
2022/01/03 07:09:35;;;;;;;13.00;3.25;;;10.80;99.90;;;;;;5090786;28;20392;-57
2022/01/03 07:12:01;;;;;;;8.80;2.85;;;10.80;99.90;;;;;;5089074;28;20016;-57
2022/01/03 07:19:51;;;;;;;3.83;3.40;;;10.70;99.90;;;;;;5073941;28;20469;-57
2022/01/03 07:22:17;;;;;;;7.20;2.65;;;10.20;99.90;;;;;;5088282;28;20051;-53
2022/01/03 07:24:42;;;;;;;4.93;2.20;;;10.00;99.90;;;;;;5090021;28;20024;-56
2022/01/03 07:27:10;;;;;;;6.47;2.20;;;9.90;99.90;;;;;;5090560;28;20110;-57
2022/01/03 07:29:37;;;;;;;6.57;2.40;;;9.80;99.90;;;;;;5090254;28;20221;-57
2022/01/03 07:32:03;;;;;;;7.40;4.63;;;9.40;99.90;;;;;;5090668;28;20039;-56
2022/01/03 07:34:29;;;;;;;8.18;5.85;;;9.30;99.90;;;;;;5090212;28;20028;-56
2022/01/03 07:36:55;;;;;;;6.22;2.97;;;9.20;99.90;;;;;;5090430;28;20026;-57
2022/01/03 07:39:21;;;;;;;5.30;2.55;;;9.30;99.90;;;;;;5090435;28;20016;-56
2022/01/03 07:41:47;;;;;;;4.55;3.30;;;9.20;99.90;;;;;;5090158;28;20028;-56
2022/01/03 07:44:12;;;;;;;17.67;8.98;;;9.20;99.90;;;;;;5089780;28;20544;-56
2022/01/03 07:46:38;;;;;;;10.48;3.45;;;9.20;99.90;;;;;;5089732;28;20483;-55
2022/01/03 07:49:04;;;;;;;20.88;8.75;;;9.20;99.90;;;;;;5090869;28;20073;-58
2022/01/03 07:51:30;;;;;;;5.28;3.00;;;9.10;99.90;;;;;;5091082;28;20025;-57
2022/01/03 07:53:56;;;;;;;8.40;2.35;;;9.00;99.90;;;;;;5091459;28;20119;-56
2022/01/03 07:56:22;;;;;;;4.32;2.30;;;9.00;99.90;;;;;;5090793;28;20127;-58
2022/01/03 07:58:48;;;;;;;3.85;2.55;;;9.00;99.90;;;;;;5083884;28;20048;-57
2022/01/03 08:01:14;;;;;;;6.68;2.65;;;9.10;99.90;;;;;;5090687;28;20016;-57
2022/01/03 08:03:40;;;;;;;4.43;2.47;;;9.10;99.90;;;;;;5090659;28;20115;-56
2022/01/03 08:06:08;;;;;;;7.03;2.20;;;9.00;99.90;;;;;;5090783;28;20116;-57
2022/01/03 08:08:34;;;;;;;4.88;2.45;;;9.10;99.90;;;;;;5070641;28;20028;-57
2022/01/03 08:10:59;;;;;;;13.10;2.22;;;9.10;99.90;;;;;;5070882;28;20044;-58
2022/01/03 08:13:25;;;;;;;4.07;2.03;;;9.10;99.90;;;;;;5088288;28;20031;-57
2022/01/03 08:15:51;;;;;;;5.93;2.10;;;9.30;99.90;;;;;;5072959;28;20495;-54
2022/01/03 08:18:17;;;;;;;3.38;2.15;;;9.30;99.90;;;;;;5090153;28;20028;-57
2022/01/03 08:20:43;;;;;;;18.42;7.00;;;9.30;99.90;;;;;;5090304;28;20039;-58
2022/01/03 08:23:08;;;;;;;86.10;36.30;;;9.30;99.90;;;;;;5090552;28;20020;-57
2022/01/03 08:25:37;;;;;;;117.93;51.97;;;9.30;99.90;;;;;;5090191;28;20051;-58
2022/01/03 08:28:07;;;;;;;6.57;4.38;;;9.20;99.90;;;;;;5089927;28;20033;-57
2022/01/03 08:30:34;;;;;;;4.05;2.15;;;9.30;99.90;;;;;;5089973;28;20033;-57
2022/01/03 08:33:00;;;;;;;38.78;22.17;;;9.30;99.90;;;;;;5088164;28;20297;-58
2022/01/03 08:35:26;;;;;;;40.55;19.17;;;9.40;99.90;;;;;;5089039;28;20386;-58
2022/01/03 08:37:52;;;;;;;8.05;2.60;;;9.50;99.90;;;;;;5071631;28;20424;-56
2022/01/03 08:40:18;;;;;;;101.05;45.65;;;9.60;99.90;;;;;;5071287;28;20115;-58
2022/01/03 08:42:44;;;;;;;23.67;10.57;;;9.60;99.90;;;;;;5089205;28;20012;-58
2022/01/03 08:45:11;;;;;;;13.68;3.58;;;9.70;99.90;;;;;;5089065;28;20024;-58
2022/01/03 08:47:36;;;;;;;30.85;14.50;;;9.90;99.90;;;;;;5087767;28;20024;-58
2022/01/03 08:50:04;;;;;;;11.10;6.28;;;10.00;99.90;;;;;;5089135;28;20032;-58
2022/01/03 08:52:31;;;;;;;7.85;4.40;;;10.10;99.90;;;;;;5089433;28;20028;-58
2022/01/03 08:54:57;;;;;;;10.10;3.33;;;10.30;99.90;;;;;;5089143;28;20048;-57
2022/01/03 08:57:23;;;;;;;10.88;4.60;;;10.40;99.90;;;;;;5089290;28;20020;-58
2022/01/03 08:59:49;;;;;;;8.18;2.53;;;10.50;99.90;;;;;;5093375;28;20016;-58
2022/01/03 09:02:16;;;;;;;12.50;3.63;;;10.70;99.90;;;;;;5092992;28;20023;-58
2022/01/03 09:04:43;;;;;;;4.28;2.10;;;10.90;99.90;;;;;;5092955;28;20037;-58
2022/01/03 09:07:09;;;;;;;9.93;2.70;;;11.10;99.90;;;;;;5093213;28;20055;-58
2022/01/03 09:09:35;;;;;;;6.97;2.55;;;11.20;99.90;;;;;;5092842;28;20028;-58
2022/01/03 09:12:02;;;;;;;7.85;2.53;;;11.30;99.90;;;;;;5092604;28;20356;-57
2022/01/03 09:14:28;;;;;;;5.38;2.30;;;11.30;99.90;;;;;;5092583;28;20032;-58
2022/01/03 09:16:54;;;;;;;4.40;2.08;;;11.40;99.90;;;;;;5092776;28;20086;-57
2022/01/03 09:19:20;;;;;;;7.10;2.40;;;11.30;99.90;;;;;;5092555;28;20032;-58
2022/01/03 09:21:45;;;;;;;10.32;3.20;;;11.30;99.90;;;;;;5092486;28;20032;-58
2022/01/03 09:29:34;;;;;;;8.13;2.10;;;11.50;99.90;;;;;;5092513;28;20165;-58
2022/01/03 09:32:00;;;;;;;8.00;2.33;;;11.50;99.80;;;;;;5074405;28;20020;-58
2022/01/03 09:34:25;;;;;;;8.13;2.15;;;11.50;99.70;;;;;;5092230;28;20035;-58
2022/01/03 09:36:51;;;;;;;6.65;2.35;;;11.50;99.80;;;;;;5092621;28;20356;-56
2022/01/03 09:39:17;;;;;;;8.77;2.15;;;11.30;99.90;;;;;;5092650;28;20467;-57
2022/01/03 09:41:52;;;;;;;11.15;2.30;;;11.40;99.90;;;;;;5092305;28;20024;-57
2022/01/03 09:44:20;;;;;;;5.35;2.40;;;11.40;99.70;;;;;;5073475;28;20119;-58
2022/01/03 09:46:46;;;;;;;2.72;1.90;;;11.40;99.10;;;;;;5092039;28;20487;-58
2022/01/03 09:49:13;;;;;;;6.90;1.80;;;11.50;98.60;;;;;;5092160;28;20028;-58
2022/01/03 09:51:40;;;;;;;3.92;1.83;;;11.70;98.40;;;;;;5092056;28;20020;-57
2022/01/03 09:54:10;;;;;;;7.20;2.20;;;11.90;98.00;;;;;;5091755;28;20040;-57
2022/01/03 09:56:37;;;;;;;10.35;3.13;;;12.20;97.50;;;;;;5075871;28;20024;-58
2022/01/03 09:59:05;;;;;;;7.45;1.90;;;12.10;96.90;;;;;;5092558;28;20042;-57
2022/01/03 10:01:31;;;;;;;6.70;3.42;;;11.90;97.20;;;;;;5091853;28;20023;-58
2022/01/03 10:03:57;;;;;;;7.18;2.47;;;12.20;96.90;;;;;;5092302;28;20364;-56
2022/01/03 10:06:26;;;;;;;5.38;1.92;;;12.20;97.00;;;;;;5082093;28;20040;-58
2022/01/03 10:08:53;;;;;;;8.40;2.47;;;12.40;96.90;;;;;;5062413;28;20471;-58
2022/01/03 10:11:21;;;;;;;5.43;1.88;;;12.40;96.20;;;;;;5078948;28;20032;-58
2022/01/03 10:13:47;;;;;;;8.75;2.47;;;12.20;96.40;;;;;;5061577;28;20071;-58
2022/01/03 10:16:13;;;;;;;6.13;2.13;;;12.30;97.00;;;;;;5080503;28;20060;-58
2022/01/03 10:18:39;;;;;;;7.65;2.28;;;12.10;96.40;;;;;;5079767;28;20039;-56
2022/01/03 10:21:07;;;;;;;4.10;2.00;;;12.10;97.10;;;;;;5080564;28;20032;-58
2022/01/03 10:23:33;;;;;;;7.35;2.10;;;12.10;97.00;;;;;;5062586;28;20500;-58
2022/01/03 10:26:20;;;;;;;13.88;5.75;;;11.90;97.40;;;;;;5081514;28;20048;-58
2022/01/03 10:28:46;;;;;;;8.23;2.33;;;11.80;97.00;;;;;;5081411;28;20042;-58
2022/01/03 10:31:21;;;;;;;3.67;2.28;;;11.70;97.40;;;;;;5082117;28;20048;-56
2022/01/03 10:33:48;;;;;;;10.40;2.50;;;11.60;97.00;;;;;;5081354;28;20692;-58
2022/01/03 10:36:30;;;;;;;16.00;3.17;;;11.60;98.20;;;;;;5082262;28;20020;-57
2022/01/03 10:38:58;;;;;;;3.63;2.35;;;11.50;97.50;;;;;;5081648;28;20126;-58
2022/01/03 10:41:25;;;;;;;4.00;2.25;;;11.60;97.90;;;;;;5081585;28;20016;-58
2022/01/03 10:43:56;;;;;;;4.93;2.10;;;11.60;97.60;;;;;;5081827;28;20027;-57
2022/01/03 10:46:30;;;;;;;6.35;1.90;;;11.60;97.10;;;;;;5081509;28;20032;-57
2022/01/03 10:49:19;;;;;;;10.82;2.15;;;11.80;97.50;;;;;;5081429;28;20043;-58
2022/01/03 10:51:46;;;;;;;5.10;1.98;;;11.90;97.40;;;;;;5081238;28;20028;-58
2022/01/03 10:54:15;;;;;;;9.00;2.58;;;12.10;96.60;;;;;;5081816;28;20039;-58
2022/01/03 10:56:50;;;;;;;4.45;2.47;;;12.40;96.30;;;;;;5081241;28;20077;-58
2022/01/03 10:59:22;;;;;;;4.20;2.10;;;12.60;95.50;;;;;;5080476;28;20395;-58
2022/01/03 11:02:10;;;;;;;7.82;2.20;;;12.80;95.80;;;;;;5080895;28;20077;-58
2022/01/03 11:04:51;;;;;;;8.25;2.25;;;12.80;94.40;;;;;;5079073;28;20080;-57
2022/01/03 11:13:03;;;;;;;5.22;2.30;;;13.00;94.60;;;;;;5079129;28;20039;-58
2022/01/03 11:15:29;;;;;;;10.43;2.20;;;13.30;93.20;;;;;;5079337;28;20131;-59
2022/01/03 11:18:07;;;;;;;11.43;3.22;;;13.30;92.90;;;;;;5084020;28;20983;-58
2022/01/03 11:20:33;;;;;;;5.03;1.92;;;13.40;93.10;;;;;;5090735;28;20032;-57
2022/01/03 11:23:00;;;;;;;12.65;4.28;;;13.60;92.20;;;;;;5089826;28;20579;-58
2022/01/03 11:25:35;;;;;;;5.90;2.10;;;13.30;92.80;;;;;;5090435;28;20043;-58
2022/01/03 11:28:02;;;;;;;5.07;2.13;;;12.90;92.60;;;;;;5090239;28;20016;-58
2022/01/03 11:30:28;;;;;;;6.38;1.80;;;12.50;93.70;;;;;;5090628;28;20429;-58
2022/01/03 11:32:56;;;;;;;3.47;1.90;;;12.40;94.20;;;;;;5072458;28;20364;-58
2022/01/03 11:35:22;;;;;;;7.53;2.90;;;12.40;94.60;;;;;;5091190;28;20471;-58
2022/01/03 11:37:48;;;;;;;4.28;1.83;;;12.30;94.40;;;;;;5091498;28;20363;-58
2022/01/03 11:40:16;;;;;;;5.72;2.22;;;12.20;95.20;;;;;;5091035;28;20016;-58
2022/01/03 11:42:44;;;;;;;6.93;2.40;;;12.30;94.20;;;;;;5091541;28;20028;-58
2022/01/03 11:45:11;;;;;;;6.32;2.30;;;12.40;94.50;;;;;;5091589;28;20491;-58
2022/01/03 11:47:37;;;;;;;11.27;3.08;;;12.60;94.10;;;;;;5091246;28;20032;-58
2022/01/03 11:50:05;;;;;;;8.65;2.88;;;12.70;93.70;;;;;;5091451;28;20050;-58
2022/01/03 11:52:33;;;;;;;8.43;3.05;;;12.80;93.70;;;;;;5091294;28;20039;-58
2022/01/03 11:54:59;;;;;;;10.45;6.75;;;12.70;93.40;;;;;;5066116;28;20516;-58
2022/01/03 12:05:51;;;;;;;11.75;2.90;;;12.40;93.60;;;;;;5080065;28;20047;-57
2022/01/03 12:08:34;;;;;;;7.85;2.92;;;12.30;94.50;;;;;;5080705;28;20035;-57
2022/01/03 12:11:02;;;;;;;11.30;3.25;;;12.50;93.70;;;;;;5079979;28;20032;-57
2022/01/03 12:13:50;;;;;;;7.35;4.15;;;12.40;94.10;;;;;;5079805;28;20035;-57
2022/01/03 12:16:16;;;;;;;8.63;3.70;;;12.30;94.10;;;;;;5080654;28;20161;-56
2022/01/03 12:19:00;;;;;;;6.82;4.60;;;12.40;93.90;;;;;;5080151;28;20028;-56
2022/01/03 12:21:55;;;;;;;15.48;7.53;;;12.30;93.90;;;;;;5080161;28;20539;-57
2022/01/03 12:24:27;;;;;;;7.78;3.88;;;12.30;93.90;;;;;;5070018;28;20054;-58
2022/01/03 12:27:14;;;;;;;4.32;2.65;;;12.30;94.10;;;;;;5087023;28;20090;-58
2022/01/03 12:29:57;;;;;;;4.38;2.28;;;12.10;93.60;;;;;;5090534;28;20635;-58
2022/01/03 12:32:45;;;;;;;9.27;5.43;;;12.10;94.30;;;;;;5081673;28;20345;-58
2022/01/03 12:35:16;;;;;;;4.60;2.90;;;12.20;94.50;;;;;;5083406;28;20036;-57
2022/01/03 12:37:44;;;;;;;7.22;2.10;;;12.10;94.20;;;;;;5094994;28;20389;-58
2022/01/03 12:40:15;;;;;;;6.78;2.75;;;12.10;94.50;;;;;;5104038;28;20043;-57
2022/01/03 12:42:52;;;;;;;10.43;3.83;;;12.00;94.10;;;;;;5092595;28;20075;-57
2022/01/03 12:45:30;;;;;;;8.70;3.53;;;11.90;94.10;;;;;;5077955;28;20046;-57
2022/01/03 12:48:11;;;;;;;23.67;8.45;;;11.80;95.40;;;;;;5084297;28;20032;-58
2022/01/03 12:50:51;;;;;;;6.28;3.08;;;11.70;95.90;;;;;;5084264;28;20113;-58
2022/01/03 12:53:23;;;;;;;14.68;6.18;;;11.50;99.90;;;;;;5097547;28;20028;-57
2022/01/03 12:55:52;;;;;;;26.55;11.65;;;11.00;99.90;;;;;;5104139;28;20415;-58
2022/01/03 12:58:20;;;;;;;32.08;11.43;;;10.60;99.90;;;;;;5089177;28;20024;-58
2022/01/03 13:01:10;;;;;;;6.18;2.28;;;10.60;99.90;;;;;;5091602;28;20019;-58
2022/01/03 13:03:52;;;;;;;17.45;7.45;;;10.70;99.90;;;;;;5089885;28;20079;-58
2022/01/03 13:06:22;;;;;;;29.42;11.48;;;10.60;99.90;;;;;;5094203;28;20051;-58
2022/01/03 13:08:48;;;;;;;23.70;8.80;;;10.50;99.90;;;;;;5094259;28;20055;-58
2022/01/03 13:11:25;;;;;;;28.10;11.63;;;10.60;99.90;;;;;;5094387;28;20086;-58
2022/01/03 13:13:54;;;;;;;11.57;5.00;;;10.60;99.90;;;;;;5094138;28;20056;-58
2022/01/03 13:16:20;;;;;;;17.63;6.00;;;10.60;99.90;;;;;;5094195;28;20053;-56
2022/01/03 13:18:46;;;;;;;9.82;4.82;;;10.60;99.90;;;;;;5093894;28;20104;-58
2022/01/03 13:21:16;;;;;;;4.45;1.95;;;10.60;99.90;;;;;;5094233;28;20028;-57